sensor_id;sensor_type;location;lat;lon;timestamp;P1;durP1;ratioP1;P2;durP2;ratioP2
58966;SDS011;44744;51.894;5.080;2022-10-28T00:00:08;16.10;;;8.50;;
58966;SDS011;44744;51.894;5.080;2022-10-28T00:01:19;16.40;;;9.00;;
58966;SDS011;44744;51.894;5.080;2022-10-28T00:02:33;13.20;;;8.70;;
58966;SDS011;44744;51.894;5.080;2022-10-28T00:03:37;13.10;;;9.00;;
58966;SDS011;44744;51.894;5.080;2022-10-28T00:05:04;14.70;;;8.60;;
58966;SDS011;44744;51.894;5.080;2022-10-28T00:06:16;17.10;;;8.50;;
58966;SDS011;44744;51.894;5.080;2022-10-28T00:07:27;18.90;;;8.80;;
58966;SDS011;44744;51.894;5.080;2022-10-28T00:08:27;14.60;;;8.60;;
58966;SDS011;44744;51.894;5.080;2022-10-28T00:09:29;17.30;;;9.30;;
58966;SDS011;44744;51.894;5.080;2022-10-28T00:10:31;18.60;;;8.90;;
58966;SDS011;44744;51.894;5.080;2022-10-28T00:11:33;15.20;;;8.90;;
58966;SDS011;44744;51.894;5.080;2022-10-28T00:12:35;15.90;;;9.50;;
58966;SDS011;44744;51.894;5.080;2022-10-28T00:13:43;16.70;;;9.10;;
58966;SDS011;44744;51.894;5.080;2022-10-28T00:14:47;13.40;;;9.00;;
58966;SDS011;44744;51.894;5.080;2022-10-28T00:15:49;14.10;;;9.10;;
58966;SDS011;44744;51.894;5.080;2022-10-28T00:16:50;17.50;;;9.40;;
58966;SDS011;44744;51.894;5.080;2022-10-28T00:17:54;14.90;;;8.60;;
58966;SDS011;44744;51.894;5.080;2022-10-28T00:18:57;17.10;;;9.60;;
58966;SDS011;44744;51.894;5.080;2022-10-28T00:19:59;17.30;;;10.20;;
58966;SDS011;44744;51.894;5.080;2022-10-28T00:21:15;13.40;;;9.50;;
58966;SDS011;44744;51.894;5.080;2022-10-28T00:22:17;19.00;;;9.50;;
58966;SDS011;44744;51.894;5.080;2022-10-28T00:23:18;14.20;;;8.80;;
58966;SDS011;44744;51.894;5.080;2022-10-28T00:24:20;17.10;;;9.30;;
58966;SDS011;44744;51.894;5.080;2022-10-28T00:25:21;15.00;;;8.30;;
58966;SDS011;44744;51.894;5.080;2022-10-28T00:26:23;15.00;;;9.90;;
58966;SDS011;44744;51.894;5.080;2022-10-28T00:27:37;13.80;;;9.10;;
58966;SDS011;44744;51.894;5.080;2022-10-28T00:29:09;16.70;;;9.50;;
58966;SDS011;44744;51.894;5.080;2022-10-28T00:30:19;22.50;;;9.70;;
58966;SDS011;44744;51.894;5.080;2022-10-28T00:31:20;14.50;;;9.00;;
58966;SDS011;44744;51.894;5.080;2022-10-28T00:32:29;15.00;;;9.60;;
58966;SDS011;44744;51.894;5.080;2022-10-28T00:33:31;15.60;;;9.00;;
58966;SDS011;44744;51.894;5.080;2022-10-28T00:34:43;17.10;;;9.90;;
58966;SDS011;44744;51.894;5.080;2022-10-28T00:35:43;14.10;;;9.50;;
58966;SDS011;44744;51.894;5.080;2022-10-28T00:36:44;17.50;;;10.20;;
58966;SDS011;44744;51.894;5.080;2022-10-28T00:37:51;22.50;;;10.40;;
58966;SDS011;44744;51.894;5.080;2022-10-28T00:38:54;18.30;;;10.70;;
58966;SDS011;44744;51.894;5.080;2022-10-28T00:40:00;16.40;;;10.00;;
58966;SDS011;44744;51.894;5.080;2022-10-28T00:41:00;16.40;;;9.80;;
58966;SDS011;44744;51.894;5.080;2022-10-28T00:42:05;19.80;;;10.80;;
58966;SDS011;44744;51.894;5.080;2022-10-28T00:43:11;17.10;;;9.80;;
58966;SDS011;44744;51.894;5.080;2022-10-28T00:45:52;16.50;;;9.50;;
58966;SDS011;44744;51.894;5.080;2022-10-28T00:46:53;15.20;;;9.90;;
58966;SDS011;44744;51.894;5.080;2022-10-28T00:48:02;13.50;;;9.10;;
58966;SDS011;44744;51.894;5.080;2022-10-28T00:49:23;17.30;;;9.70;;
58966;SDS011;44744;51.894;5.080;2022-10-28T00:51:37;15.40;;;9.40;;
58966;SDS011;44744;51.894;5.080;2022-10-28T00:52:40;16.20;;;9.50;;
58966;SDS011;44744;51.894;5.080;2022-10-28T00:53:41;14.60;;;9.60;;
58966;SDS011;44744;51.894;5.080;2022-10-28T00:54:44;20.30;;;9.60;;
58966;SDS011;44744;51.894;5.080;2022-10-28T00:55:45;16.40;;;9.30;;
58966;SDS011;44744;51.894;5.080;2022-10-28T00:56:48;12.30;;;9.60;;
58966;SDS011;44744;51.894;5.080;2022-10-28T00:57:52;17.00;;;9.70;;
58966;SDS011;44744;51.894;5.080;2022-10-28T00:58:54;15.10;;;9.20;;
58966;SDS011;44744;51.894;5.080;2022-10-28T01:00:04;14.70;;;9.20;;
58966;SDS011;44744;51.894;5.080;2022-10-28T01:01:08;18.10;;;9.30;;
58966;SDS011;44744;51.894;5.080;2022-10-28T01:02:09;18.20;;;9.50;;
58966;SDS011;44744;51.894;5.080;2022-10-28T01:03:10;16.10;;;9.60;;
58966;SDS011;44744;51.894;5.080;2022-10-28T01:04:11;18.00;;;9.70;;
58966;SDS011;44744;51.894;5.080;2022-10-28T01:05:14;17.10;;;9.70;;
58966;SDS011;44744;51.894;5.080;2022-10-28T01:06:39;14.20;;;9.50;;
58966;SDS011;44744;51.894;5.080;2022-10-28T01:07:49;13.80;;;9.00;;
58966;SDS011;44744;51.894;5.080;2022-10-28T01:08:56;15.00;;;9.20;;
58966;SDS011;44744;51.894;5.080;2022-10-28T01:09:57;16.60;;;9.60;;
58966;SDS011;44744;51.894;5.080;2022-10-28T01:15:20;16.30;;;9.10;;
58966;SDS011;44744;51.894;5.080;2022-10-28T01:16:45;14.40;;;9.20;;
58966;SDS011;44744;51.894;5.080;2022-10-28T01:23:46;21.90;;;9.10;;
58966;SDS011;44744;51.894;5.080;2022-10-28T01:26:20;15.40;;;9.10;;
58966;SDS011;44744;51.894;5.080;2022-10-28T01:30:20;14.60;;;9.50;;
58966;SDS011;44744;51.894;5.080;2022-10-28T01:31:31;17.40;;;9.70;;
58966;SDS011;44744;51.894;5.080;2022-10-28T01:34:19;16.40;;;10.00;;
58966;SDS011;44744;51.894;5.080;2022-10-28T01:36:50;19.70;;;9.60;;
58966;SDS011;44744;51.894;5.080;2022-10-28T01:39:34;18.40;;;9.80;;
58966;SDS011;44744;51.894;5.080;2022-10-28T01:41:25;16.50;;;8.90;;
58966;SDS011;44744;51.894;5.080;2022-10-28T01:45:55;15.10;;;9.80;;
58966;SDS011;44744;51.894;5.080;2022-10-28T01:48:44;13.90;;;8.70;;
58966;SDS011;44744;51.894;5.080;2022-10-28T01:50:59;13.30;;;8.80;;
58966;SDS011;44744;51.894;5.080;2022-10-28T01:52:09;14.90;;;9.00;;
58966;SDS011;44744;51.894;5.080;2022-10-28T01:53:16;15.60;;;9.00;;
58966;SDS011;44744;51.894;5.080;2022-10-28T01:54:22;13.80;;;8.90;;
58966;SDS011;44744;51.894;5.080;2022-10-28T01:55:27;15.70;;;9.50;;
58966;SDS011;44744;51.894;5.080;2022-10-28T01:56:51;20.20;;;9.50;;
58966;SDS011;44744;51.894;5.080;2022-10-28T01:57:56;15.00;;;9.20;;
58966;SDS011;44744;51.894;5.080;2022-10-28T01:59:00;17.40;;;9.70;;
58966;SDS011;44744;51.894;5.080;2022-10-28T02:00:11;16.30;;;9.60;;
58966;SDS011;44744;51.894;5.080;2022-10-28T02:01:15;13.10;;;9.30;;
58966;SDS011;44744;51.894;5.080;2022-10-28T02:02:20;14.00;;;8.70;;
58966;SDS011;44744;51.894;5.080;2022-10-28T02:03:41;15.70;;;9.80;;
58966;SDS011;44744;51.894;5.080;2022-10-28T02:04:46;15.50;;;9.80;;
58966;SDS011;44744;51.894;5.080;2022-10-28T02:05:59;12.80;;;9.20;;
58966;SDS011;44744;51.894;5.080;2022-10-28T02:07:11;17.50;;;9.30;;
58966;SDS011;44744;51.894;5.080;2022-10-28T02:11:27;11.20;;;8.70;;
58966;SDS011;44744;51.894;5.080;2022-10-28T02:12:55;17.00;;;9.90;;
58966;SDS011;44744;51.894;5.080;2022-10-28T02:17:43;17.60;;;9.50;;
58966;SDS011;44744;51.894;5.080;2022-10-28T02:22:21;20.10;;;11.00;;
58966;SDS011;44744;51.894;5.080;2022-10-28T02:23:42;21.80;;;10.90;;
58966;SDS011;44744;51.894;5.080;2022-10-28T02:25:03;15.20;;;9.80;;
58966;SDS011;44744;51.894;5.080;2022-10-28T02:26:35;18.00;;;10.20;;
58966;SDS011;44744;51.894;5.080;2022-10-28T02:30:42;18.60;;;9.50;;
58966;SDS011;44744;51.894;5.080;2022-10-28T02:32:07;14.50;;;9.70;;
58966;SDS011;44744;51.894;5.080;2022-10-28T02:33:33;13.30;;;8.70;;
58966;SDS011;44744;51.894;5.080;2022-10-28T02:34:41;19.50;;;9.00;;
58966;SDS011;44744;51.894;5.080;2022-10-28T02:35:54;14.70;;;10.30;;
58966;SDS011;44744;51.894;5.080;2022-10-28T02:37:19;15.10;;;8.80;;
58966;SDS011;44744;51.894;5.080;2022-10-28T02:38:33;16.10;;;8.90;;
58966;SDS011;44744;51.894;5.080;2022-10-28T02:40:00;16.40;;;9.10;;
58966;SDS011;44744;51.894;5.080;2022-10-28T02:41:14;16.30;;;9.80;;
58966;SDS011;44744;51.894;5.080;2022-10-28T02:42:26;17.40;;;9.40;;
58966;SDS011;44744;51.894;5.080;2022-10-28T02:43:31;13.90;;;9.60;;
58966;SDS011;44744;51.894;5.080;2022-10-28T02:44:57;19.90;;;8.80;;
58966;SDS011;44744;51.894;5.080;2022-10-28T02:46:04;17.40;;;9.70;;
58966;SDS011;44744;51.894;5.080;2022-10-28T02:47:12;13.40;;;8.50;;
58966;SDS011;44744;51.894;5.080;2022-10-28T02:49:59;14.20;;;9.40;;
58966;SDS011;44744;51.894;5.080;2022-10-28T02:51:08;19.10;;;9.30;;
58966;SDS011;44744;51.894;5.080;2022-10-28T02:52:16;17.10;;;9.70;;
58966;SDS011;44744;51.894;5.080;2022-10-28T02:53:25;15.10;;;8.40;;
58966;SDS011;44744;51.894;5.080;2022-10-28T02:54:34;17.80;;;9.40;;
58966;SDS011;44744;51.894;5.080;2022-10-28T02:55:41;11.70;;;8.80;;
58966;SDS011;44744;51.894;5.080;2022-10-28T02:56:47;18.10;;;8.90;;
58966;SDS011;44744;51.894;5.080;2022-10-28T02:57:52;16.80;;;9.30;;
58966;SDS011;44744;51.894;5.080;2022-10-28T02:58:53;21.10;;;9.30;;
58966;SDS011;44744;51.894;5.080;2022-10-28T02:59:55;13.70;;;8.80;;
58966;SDS011;44744;51.894;5.080;2022-10-28T03:00:59;13.30;;;8.90;;
58966;SDS011;44744;51.894;5.080;2022-10-28T03:02:03;17.00;;;8.70;;
58966;SDS011;44744;51.894;5.080;2022-10-28T03:03:04;14.60;;;9.00;;
58966;SDS011;44744;51.894;5.080;2022-10-28T03:04:07;14.90;;;10.10;;
58966;SDS011;44744;51.894;5.080;2022-10-28T03:05:09;16.00;;;9.30;;
58966;SDS011;44744;51.894;5.080;2022-10-28T03:06:13;13.50;;;9.60;;
58966;SDS011;44744;51.894;5.080;2022-10-28T03:07:15;17.30;;;9.40;;
58966;SDS011;44744;51.894;5.080;2022-10-28T03:08:18;12.60;;;8.10;;
58966;SDS011;44744;51.894;5.080;2022-10-28T03:09:18;12.80;;;7.90;;
58966;SDS011;44744;51.894;5.080;2022-10-28T03:10:19;13.50;;;8.70;;
58966;SDS011;44744;51.894;5.080;2022-10-28T03:11:19;15.50;;;8.10;;
58966;SDS011;44744;51.894;5.080;2022-10-28T03:13:22;16.90;;;8.30;;
58966;SDS011;44744;51.894;5.080;2022-10-28T03:14:23;16.10;;;9.10;;
58966;SDS011;44744;51.894;5.080;2022-10-28T03:15:26;16.20;;;8.80;;
58966;SDS011;44744;51.894;5.080;2022-10-28T03:16:28;16.10;;;8.50;;
58966;SDS011;44744;51.894;5.080;2022-10-28T03:17:48;13.90;;;8.40;;
58966;SDS011;44744;51.894;5.080;2022-10-28T03:19:24;15.20;;;8.50;;
58966;SDS011;44744;51.894;5.080;2022-10-28T03:20:25;15.50;;;8.50;;
58966;SDS011;44744;51.894;5.080;2022-10-28T03:21:27;16.40;;;7.90;;
58966;SDS011;44744;51.894;5.080;2022-10-28T03:22:27;15.30;;;7.80;;
58966;SDS011;44744;51.894;5.080;2022-10-28T03:23:27;15.10;;;7.90;;
58966;SDS011;44744;51.894;5.080;2022-10-28T03:24:31;15.00;;;8.20;;
58966;SDS011;44744;51.894;5.080;2022-10-28T03:25:46;15.60;;;8.50;;
58966;SDS011;44744;51.894;5.080;2022-10-28T03:26:47;14.00;;;7.80;;
58966;SDS011;44744;51.894;5.080;2022-10-28T03:27:49;20.20;;;8.80;;
58966;SDS011;44744;51.894;5.080;2022-10-28T03:28:50;15.30;;;8.00;;
58966;SDS011;44744;51.894;5.080;2022-10-28T03:29:56;13.20;;;7.50;;
58966;SDS011;44744;51.894;5.080;2022-10-28T03:30:58;13.10;;;8.40;;
58966;SDS011;44744;51.894;5.080;2022-10-28T03:32:03;12.30;;;8.10;;
58966;SDS011;44744;51.894;5.080;2022-10-28T03:33:07;12.80;;;7.50;;
58966;SDS011;44744;51.894;5.080;2022-10-28T03:34:09;17.10;;;7.80;;
58966;SDS011;44744;51.894;5.080;2022-10-28T03:35:15;11.10;;;7.60;;
58966;SDS011;44744;51.894;5.080;2022-10-28T03:36:15;12.90;;;7.40;;
58966;SDS011;44744;51.894;5.080;2022-10-28T03:37:15;18.30;;;8.00;;
58966;SDS011;44744;51.894;5.080;2022-10-28T03:38:16;14.10;;;8.00;;
58966;SDS011;44744;51.894;5.080;2022-10-28T03:39:17;15.70;;;8.00;;
58966;SDS011;44744;51.894;5.080;2022-10-28T03:40:18;14.60;;;7.20;;
58966;SDS011;44744;51.894;5.080;2022-10-28T03:41:19;15.40;;;7.50;;
58966;SDS011;44744;51.894;5.080;2022-10-28T03:42:23;16.30;;;7.60;;
58966;SDS011;44744;51.894;5.080;2022-10-28T03:43:24;13.10;;;7.10;;
58966;SDS011;44744;51.894;5.080;2022-10-28T03:44:27;23.50;;;7.40;;
58966;SDS011;44744;51.894;5.080;2022-10-28T03:45:31;15.10;;;7.70;;
58966;SDS011;44744;51.894;5.080;2022-10-28T03:48:15;13.00;;;7.00;;
58966;SDS011;44744;51.894;5.080;2022-10-28T03:49:23;11.40;;;6.20;;
58966;SDS011;44744;51.894;5.080;2022-10-28T03:50:26;16.50;;;7.10;;
58966;SDS011;44744;51.894;5.080;2022-10-28T03:51:27;16.70;;;7.20;;
58966;SDS011;44744;51.894;5.080;2022-10-28T03:52:28;16.00;;;7.20;;
58966;SDS011;44744;51.894;5.080;2022-10-28T03:53:29;11.80;;;6.60;;
58966;SDS011;44744;51.894;5.080;2022-10-28T03:54:29;11.60;;;6.50;;
58966;SDS011;44744;51.894;5.080;2022-10-28T03:55:33;12.00;;;6.80;;
58966;SDS011;44744;51.894;5.080;2022-10-28T03:56:39;12.50;;;6.80;;
58966;SDS011;44744;51.894;5.080;2022-10-28T03:57:41;13.90;;;7.00;;
58966;SDS011;44744;51.894;5.080;2022-10-28T03:58:46;15.30;;;6.40;;
58966;SDS011;44744;51.894;5.080;2022-10-28T03:59:48;18.20;;;6.40;;
58966;SDS011;44744;51.894;5.080;2022-10-28T04:00:51;10.90;;;6.40;;
58966;SDS011;44744;51.894;5.080;2022-10-28T04:01:53;11.60;;;6.40;;
58966;SDS011;44744;51.894;5.080;2022-10-28T04:02:58;16.10;;;6.40;;
58966;SDS011;44744;51.894;5.080;2022-10-28T04:03:58;17.50;;;6.80;;
58966;SDS011;44744;51.894;5.080;2022-10-28T04:05:01;12.10;;;6.10;;
58966;SDS011;44744;51.894;5.080;2022-10-28T04:07:06;13.10;;;6.60;;
58966;SDS011;44744;51.894;5.080;2022-10-28T04:08:13;14.00;;;6.60;;
58966;SDS011;44744;51.894;5.080;2022-10-28T04:09:15;14.50;;;6.60;;
58966;SDS011;44744;51.894;5.080;2022-10-28T04:10:16;12.90;;;5.80;;
58966;SDS011;44744;51.894;5.080;2022-10-28T04:11:22;12.20;;;7.10;;
58966;SDS011;44744;51.894;5.080;2022-10-28T04:12:30;13.80;;;6.50;;
58966;SDS011;44744;51.894;5.080;2022-10-28T04:13:33;12.60;;;5.90;;
58966;SDS011;44744;51.894;5.080;2022-10-28T04:15:50;11.40;;;6.40;;
58966;SDS011;44744;51.894;5.080;2022-10-28T04:18:45;14.00;;;5.80;;
58966;SDS011;44744;51.894;5.080;2022-10-28T04:19:46;11.60;;;6.20;;
58966;SDS011;44744;51.894;5.080;2022-10-28T04:21:04;11.70;;;6.10;;
58966;SDS011;44744;51.894;5.080;2022-10-28T04:22:18;13.90;;;6.20;;
58966;SDS011;44744;51.894;5.080;2022-10-28T04:23:18;12.30;;;6.20;;
58966;SDS011;44744;51.894;5.080;2022-10-28T04:24:24;11.00;;;6.00;;
58966;SDS011;44744;51.894;5.080;2022-10-28T04:25:26;15.60;;;6.10;;
58966;SDS011;44744;51.894;5.080;2022-10-28T04:28:11;17.80;;;5.90;;
58966;SDS011;44744;51.894;5.080;2022-10-28T04:29:13;16.40;;;5.30;;
58966;SDS011;44744;51.894;5.080;2022-10-28T04:30:15;10.20;;;5.90;;
58966;SDS011;44744;51.894;5.080;2022-10-28T04:31:16;13.30;;;6.20;;
58966;SDS011;44744;51.894;5.080;2022-10-28T04:32:20;10.30;;;5.20;;
58966;SDS011;44744;51.894;5.080;2022-10-28T04:33:20;14.70;;;6.10;;
58966;SDS011;44744;51.894;5.080;2022-10-28T04:34:20;13.40;;;6.80;;
58966;SDS011;44744;51.894;5.080;2022-10-28T04:35:23;11.90;;;6.10;;
58966;SDS011;44744;51.894;5.080;2022-10-28T04:36:25;10.00;;;5.50;;
58966;SDS011;44744;51.894;5.080;2022-10-28T04:37:28;10.50;;;6.00;;
58966;SDS011;44744;51.894;5.080;2022-10-28T04:38:31;13.70;;;5.80;;
58966;SDS011;44744;51.894;5.080;2022-10-28T04:39:32;17.80;;;6.20;;
58966;SDS011;44744;51.894;5.080;2022-10-28T04:40:33;12.20;;;6.50;;
58966;SDS011;44744;51.894;5.080;2022-10-28T04:41:33;11.80;;;5.90;;
58966;SDS011;44744;51.894;5.080;2022-10-28T04:42:34;10.00;;;5.70;;
58966;SDS011;44744;51.894;5.080;2022-10-28T04:43:35;14.50;;;6.50;;
58966;SDS011;44744;51.894;5.080;2022-10-28T04:44:35;11.60;;;5.40;;
58966;SDS011;44744;51.894;5.080;2022-10-28T04:45:36;10.90;;;5.80;;
58966;SDS011;44744;51.894;5.080;2022-10-28T04:46:46;14.80;;;5.90;;
58966;SDS011;44744;51.894;5.080;2022-10-28T04:47:46;11.40;;;6.20;;
58966;SDS011;44744;51.894;5.080;2022-10-28T04:48:49;15.70;;;5.90;;
58966;SDS011;44744;51.894;5.080;2022-10-28T04:49:50;13.50;;;5.30;;
58966;SDS011;44744;51.894;5.080;2022-10-28T04:50:52;16.00;;;6.10;;
58966;SDS011;44744;51.894;5.080;2022-10-28T04:52:00;13.00;;;5.80;;
58966;SDS011;44744;51.894;5.080;2022-10-28T04:53:23;12.90;;;5.80;;
58966;SDS011;44744;51.894;5.080;2022-10-28T04:55:04;14.20;;;5.90;;
58966;SDS011;44744;51.894;5.080;2022-10-28T04:56:26;11.60;;;6.20;;
58966;SDS011;44744;51.894;5.080;2022-10-28T04:57:27;14.90;;;5.70;;
58966;SDS011;44744;51.894;5.080;2022-10-28T04:58:31;8.70;;;5.10;;
58966;SDS011;44744;51.894;5.080;2022-10-28T04:59:31;12.60;;;5.80;;
58966;SDS011;44744;51.894;5.080;2022-10-28T05:00:32;11.60;;;5.70;;
58966;SDS011;44744;51.894;5.080;2022-10-28T05:01:35;10.40;;;5.70;;
58966;SDS011;44744;51.894;5.080;2022-10-28T05:02:36;19.30;;;6.30;;
58966;SDS011;44744;51.894;5.080;2022-10-28T05:03:59;11.80;;;6.10;;
58966;SDS011;44744;51.894;5.080;2022-10-28T05:05:03;13.60;;;6.00;;
58966;SDS011;44744;51.894;5.080;2022-10-28T05:06:05;13.60;;;5.70;;
58966;SDS011;44744;51.894;5.080;2022-10-28T05:07:08;14.50;;;6.50;;
58966;SDS011;44744;51.894;5.080;2022-10-28T05:08:47;15.20;;;6.30;;
58966;SDS011;44744;51.894;5.080;2022-10-28T05:09:52;17.60;;;6.50;;
58966;SDS011;44744;51.894;5.080;2022-10-28T05:10:53;13.70;;;6.10;;
58966;SDS011;44744;51.894;5.080;2022-10-28T05:11:58;15.00;;;6.10;;
58966;SDS011;44744;51.894;5.080;2022-10-28T05:12:58;15.70;;;6.30;;
58966;SDS011;44744;51.894;5.080;2022-10-28T05:13:59;17.80;;;7.10;;
58966;SDS011;44744;51.894;5.080;2022-10-28T05:14:59;14.00;;;5.90;;
58966;SDS011;44744;51.894;5.080;2022-10-28T05:16:01;11.80;;;5.10;;
58966;SDS011;44744;51.894;5.080;2022-10-28T05:17:11;14.30;;;6.00;;
58966;SDS011;44744;51.894;5.080;2022-10-28T05:18:12;14.20;;;6.20;;
58966;SDS011;44744;51.894;5.080;2022-10-28T05:19:14;13.00;;;5.70;;
58966;SDS011;44744;51.894;5.080;2022-10-28T05:20:15;10.60;;;5.50;;
58966;SDS011;44744;51.894;5.080;2022-10-28T05:21:20;12.50;;;5.90;;
58966;SDS011;44744;51.894;5.080;2022-10-28T05:22:21;17.50;;;6.60;;
58966;SDS011;44744;51.894;5.080;2022-10-28T05:23:24;12.60;;;5.90;;
58966;SDS011;44744;51.894;5.080;2022-10-28T05:24:27;12.20;;;5.80;;
58966;SDS011;44744;51.894;5.080;2022-10-28T05:25:28;17.70;;;5.80;;
58966;SDS011;44744;51.894;5.080;2022-10-28T05:26:29;10.80;;;5.50;;
58966;SDS011;44744;51.894;5.080;2022-10-28T05:27:29;14.80;;;6.00;;
58966;SDS011;44744;51.894;5.080;2022-10-28T05:28:30;19.80;;;5.80;;
58966;SDS011;44744;51.894;5.080;2022-10-28T05:29:30;15.20;;;6.10;;
58966;SDS011;44744;51.894;5.080;2022-10-28T05:30:32;12.90;;;5.50;;
58966;SDS011;44744;51.894;5.080;2022-10-28T05:31:33;12.10;;;5.80;;
58966;SDS011;44744;51.894;5.080;2022-10-28T05:32:37;14.80;;;5.90;;
58966;SDS011;44744;51.894;5.080;2022-10-28T05:33:43;13.20;;;5.70;;
58966;SDS011;44744;51.894;5.080;2022-10-28T05:34:45;12.00;;;5.50;;
58966;SDS011;44744;51.894;5.080;2022-10-28T05:35:45;10.20;;;5.60;;
58966;SDS011;44744;51.894;5.080;2022-10-28T05:36:48;11.20;;;5.30;;
58966;SDS011;44744;51.894;5.080;2022-10-28T05:37:53;11.10;;;5.40;;
58966;SDS011;44744;51.894;5.080;2022-10-28T05:39:57;12.80;;;5.30;;
58966;SDS011;44744;51.894;5.080;2022-10-28T05:40:57;12.40;;;6.30;;
58966;SDS011;44744;51.894;5.080;2022-10-28T05:41:59;12.70;;;5.40;;
58966;SDS011;44744;51.894;5.080;2022-10-28T05:43:07;10.60;;;5.40;;
58966;SDS011;44744;51.894;5.080;2022-10-28T05:44:09;13.90;;;5.10;;
58966;SDS011;44744;51.894;5.080;2022-10-28T05:45:10;14.00;;;6.00;;
58966;SDS011;44744;51.894;5.080;2022-10-28T05:46:11;14.40;;;5.80;;
58966;SDS011;44744;51.894;5.080;2022-10-28T05:47:13;11.80;;;6.20;;
58966;SDS011;44744;51.894;5.080;2022-10-28T05:48:17;16.00;;;5.40;;
58966;SDS011;44744;51.894;5.080;2022-10-28T05:49:30;11.50;;;5.40;;
58966;SDS011;44744;51.894;5.080;2022-10-28T05:50:37;10.80;;;5.00;;
58966;SDS011;44744;51.894;5.080;2022-10-28T05:51:39;15.10;;;5.60;;
58966;SDS011;44744;51.894;5.080;2022-10-28T05:52:48;9.30;;;5.20;;
58966;SDS011;44744;51.894;5.080;2022-10-28T05:53:50;12.00;;;5.90;;
58966;SDS011;44744;51.894;5.080;2022-10-28T05:55:15;11.90;;;5.90;;
58966;SDS011;44744;51.894;5.080;2022-10-28T05:57:17;13.10;;;5.80;;
58966;SDS011;44744;51.894;5.080;2022-10-28T05:58:20;14.80;;;5.90;;
58966;SDS011;44744;51.894;5.080;2022-10-28T05:59:23;12.50;;;6.00;;
58966;SDS011;44744;51.894;5.080;2022-10-28T06:00:24;14.30;;;6.50;;
58966;SDS011;44744;51.894;5.080;2022-10-28T06:01:27;12.90;;;5.00;;
58966;SDS011;44744;51.894;5.080;2022-10-28T06:02:28;9.70;;;5.40;;
58966;SDS011;44744;51.894;5.080;2022-10-28T06:03:28;11.80;;;5.60;;
58966;SDS011;44744;51.894;5.080;2022-10-28T06:04:29;10.90;;;4.80;;
58966;SDS011;44744;51.894;5.080;2022-10-28T06:05:35;9.90;;;4.80;;
58966;SDS011;44744;51.894;5.080;2022-10-28T06:06:40;13.50;;;5.40;;
58966;SDS011;44744;51.894;5.080;2022-10-28T06:07:41;9.60;;;5.50;;
58966;SDS011;44744;51.894;5.080;2022-10-28T06:08:43;11.90;;;5.00;;
58966;SDS011;44744;51.894;5.080;2022-10-28T06:09:57;15.00;;;5.50;;
58966;SDS011;44744;51.894;5.080;2022-10-28T06:10:57;17.60;;;5.70;;
58966;SDS011;44744;51.894;5.080;2022-10-28T06:11:59;12.90;;;5.30;;
58966;SDS011;44744;51.894;5.080;2022-10-28T06:13:22;10.10;;;5.60;;
58966;SDS011;44744;51.894;5.080;2022-10-28T06:14:24;15.70;;;6.20;;
58966;SDS011;44744;51.894;5.080;2022-10-28T06:15:44;10.10;;;6.10;;
58966;SDS011;44744;51.894;5.080;2022-10-28T06:17:26;12.20;;;5.10;;
58966;SDS011;44744;51.894;5.080;2022-10-28T06:18:54;10.80;;;5.90;;
58966;SDS011;44744;51.894;5.080;2022-10-28T06:20:25;14.50;;;6.00;;
58966;SDS011;44744;51.894;5.080;2022-10-28T06:21:28;12.70;;;5.90;;
58966;SDS011;44744;51.894;5.080;2022-10-28T06:22:30;15.40;;;5.90;;
58966;SDS011;44744;51.894;5.080;2022-10-28T06:23:33;16.20;;;6.40;;
58966;SDS011;44744;51.894;5.080;2022-10-28T06:24:33;16.00;;;6.40;;
58966;SDS011;44744;51.894;5.080;2022-10-28T06:25:34;12.20;;;6.10;;
58966;SDS011;44744;51.894;5.080;2022-10-28T06:26:36;12.30;;;6.10;;
58966;SDS011;44744;51.894;5.080;2022-10-28T06:27:38;21.70;;;6.70;;
58966;SDS011;44744;51.894;5.080;2022-10-28T06:28:45;15.80;;;6.00;;
58966;SDS011;44744;51.894;5.080;2022-10-28T06:29:47;14.30;;;6.20;;
58966;SDS011;44744;51.894;5.080;2022-10-28T06:30:52;17.70;;;6.40;;
58966;SDS011;44744;51.894;5.080;2022-10-28T06:32:08;11.60;;;5.80;;
58966;SDS011;44744;51.894;5.080;2022-10-28T06:33:18;18.40;;;6.60;;
58966;SDS011;44744;51.894;5.080;2022-10-28T06:34:19;19.50;;;6.80;;
58966;SDS011;44744;51.894;5.080;2022-10-28T06:35:22;16.00;;;5.90;;
58966;SDS011;44744;51.894;5.080;2022-10-28T06:36:24;17.10;;;7.20;;
58966;SDS011;44744;51.894;5.080;2022-10-28T06:37:27;9.90;;;5.30;;
58966;SDS011;44744;51.894;5.080;2022-10-28T06:38:30;13.90;;;6.00;;
58966;SDS011;44744;51.894;5.080;2022-10-28T06:40:11;17.30;;;6.20;;
58966;SDS011;44744;51.894;5.080;2022-10-28T06:41:11;20.60;;;6.50;;
58966;SDS011;44744;51.894;5.080;2022-10-28T06:42:14;13.80;;;5.90;;
58966;SDS011;44744;51.894;5.080;2022-10-28T06:43:26;12.80;;;5.80;;
58966;SDS011;44744;51.894;5.080;2022-10-28T06:44:26;15.90;;;6.30;;
58966;SDS011;44744;51.894;5.080;2022-10-28T06:47:14;19.70;;;6.30;;
58966;SDS011;44744;51.894;5.080;2022-10-28T06:53:46;15.70;;;6.50;;
58966;SDS011;44744;51.894;5.080;2022-10-28T06:59:27;17.30;;;6.70;;
58966;SDS011;44744;51.894;5.080;2022-10-28T07:00:59;17.80;;;6.60;;
58966;SDS011;44744;51.894;5.080;2022-10-28T07:08:06;11.90;;;5.80;;
58966;SDS011;44744;51.894;5.080;2022-10-28T07:11:37;12.60;;;5.80;;
58966;SDS011;44744;51.894;5.080;2022-10-28T18:50:08;19.80;;;4.30;;
58966;SDS011;44744;51.894;5.080;2022-10-28T18:51:10;13.90;;;4.00;;
58966;SDS011;44744;51.894;5.080;2022-10-28T18:52:11;18.80;;;4.60;;
58966;SDS011;44744;51.894;5.080;2022-10-28T18:53:12;17.40;;;4.70;;
58966;SDS011;44744;51.894;5.080;2022-10-28T18:54:20;13.70;;;4.00;;
58966;SDS011;44744;51.894;5.080;2022-10-28T18:55:21;14.60;;;4.00;;
58966;SDS011;44744;51.894;5.080;2022-10-28T18:56:25;20.00;;;4.50;;
58966;SDS011;44744;51.894;5.080;2022-10-28T18:58:53;23.30;;;5.70;;
58966;SDS011;44744;51.894;5.080;2022-10-28T18:59:57;18.10;;;4.90;;
58966;SDS011;44744;51.894;5.080;2022-10-28T19:02:14;18.80;;;4.90;;
58966;SDS011;44744;51.894;5.080;2022-10-28T19:03:18;21.30;;;4.50;;
58966;SDS011;44744;51.894;5.080;2022-10-28T19:04:38;18.40;;;4.80;;
58966;SDS011;44744;51.894;5.080;2022-10-28T19:05:44;14.20;;;4.30;;
58966;SDS011;44744;51.894;5.080;2022-10-28T19:06:45;18.00;;;4.70;;
58966;SDS011;44744;51.894;5.080;2022-10-28T19:07:46;18.40;;;4.60;;
58966;SDS011;44744;51.894;5.080;2022-10-28T19:08:51;19.70;;;4.80;;
58966;SDS011;44744;51.894;5.080;2022-10-28T19:09:55;16.30;;;4.60;;
58966;SDS011;44744;51.894;5.080;2022-10-28T19:10:56;15.70;;;4.60;;
58966;SDS011;44744;51.894;5.080;2022-10-28T19:12:11;16.50;;;4.20;;
58966;SDS011;44744;51.894;5.080;2022-10-28T19:13:14;14.70;;;4.10;;
58966;SDS011;44744;51.894;5.080;2022-10-28T19:14:37;16.20;;;4.30;;
58966;SDS011;44744;51.894;5.080;2022-10-28T19:15:44;14.70;;;4.10;;
58966;SDS011;44744;51.894;5.080;2022-10-28T19:16:46;20.40;;;5.00;;
58966;SDS011;44744;51.894;5.080;2022-10-28T19:17:51;13.80;;;4.60;;
58966;SDS011;44744;51.894;5.080;2022-10-28T19:19:03;17.50;;;4.20;;
58966;SDS011;44744;51.894;5.080;2022-10-28T19:20:10;19.40;;;4.90;;
58966;SDS011;44744;51.894;5.080;2022-10-28T19:21:12;16.00;;;4.30;;
58966;SDS011;44744;51.894;5.080;2022-10-28T19:22:16;22.40;;;4.90;;
58966;SDS011;44744;51.894;5.080;2022-10-28T19:23:19;22.60;;;5.10;;
58966;SDS011;44744;51.894;5.080;2022-10-28T19:24:28;18.40;;;4.20;;
58966;SDS011;44744;51.894;5.080;2022-10-28T19:25:32;21.00;;;4.80;;
58966;SDS011;44744;51.894;5.080;2022-10-28T19:26:35;16.60;;;4.40;;